createdAt,value
2024-05-09T00:01:22.198Z,5.42
2024-05-09T00:04:24.082Z,5.54
2024-05-09T00:07:25.940Z,5.35
2024-05-09T00:10:35.432Z,5.50
2024-05-09T00:13:39.727Z,5.29
2024-05-09T00:16:41.582Z,5.51
2024-05-09T00:19:44.001Z,5.58
2024-05-09T00:22:45.902Z,5.22
2024-05-09T00:25:47.851Z,5.06
2024-05-09T00:28:49.777Z,5.19
2024-05-09T00:31:51.714Z,5.07
2024-05-09T00:34:53.619Z,5.05
2024-05-09T00:37:55.565Z,5.08
2024-05-09T00:40:57.465Z,5.06
2024-05-09T00:44:00.144Z,5.29
2024-05-09T00:47:02.105Z,5.47
2024-05-09T00:50:07.593Z,5.40
2024-05-09T00:53:17.398Z,5.54
2024-05-09T00:56:22.186Z,5.75
2024-05-09T00:59:25.195Z,5.53
2024-05-09T01:02:28.788Z,5.61
2024-05-09T01:05:32.185Z,5.62
2024-05-09T01:08:34.288Z,5.80
2024-05-09T01:11:37.335Z,5.81
2024-05-09T01:14:39.278Z,6.26
2024-05-09T01:17:41.734Z,6.42
2024-05-09T01:20:45.229Z,6.38
2024-05-09T01:23:47.705Z,6.37
2024-05-09T01:26:50.377Z,6.36
2024-05-09T01:29:52.227Z,6.53
2024-05-09T01:32:54.280Z,6.45
2024-05-09T01:35:56.344Z,6.24
2024-05-09T01:38:58.601Z,5.35
2024-05-09T01:42:00.519Z,4.96
2024-05-09T01:45:02.365Z,4.74
2024-05-09T01:48:04.942Z,4.71
2024-05-09T01:51:07.067Z,4.70
2024-05-09T01:54:08.917Z,4.65
2024-05-09T01:57:10.813Z,4.61
2024-05-09T02:00:15.687Z,4.25
2024-05-09T02:03:21.052Z,4.47
2024-05-09T02:06:23.220Z,4.36
2024-05-09T02:09:25.863Z,4.35
2024-05-09T02:12:27.763Z,4.67
2024-05-09T02:15:29.648Z,4.92
2024-05-09T02:18:31.537Z,4.86
2024-05-09T02:21:34.342Z,4.92
2024-05-09T02:24:36.245Z,4.71
2024-05-09T02:27:38.071Z,4.74
2024-05-09T02:30:41.808Z,4.43
2024-05-09T02:33:44.632Z,4.60
2024-05-09T02:36:46.766Z,4.34
2024-05-09T02:39:48.648Z,4.11
2024-05-09T02:42:50.698Z,3.83
2024-05-09T02:45:52.535Z,3.90
2024-05-09T02:48:54.434Z,3.83
2024-05-09T02:51:56.279Z,3.72
2024-05-09T02:54:58.098Z,4.06
2024-05-09T02:58:00.127Z,3.84
2024-05-09T03:01:02.093Z,3.88
2024-05-09T03:04:05.400Z,3.89
2024-05-09T03:07:07.391Z,3.94
2024-05-09T03:10:18.240Z,3.99
2024-05-09T03:13:24.266Z,3.74
2024-05-09T03:16:26.094Z,3.60
2024-05-09T03:19:28.060Z,3.40
2024-05-09T03:22:29.935Z,3.59
2024-05-09T03:25:31.777Z,3.12
2024-05-09T03:28:33.580Z,3.13
2024-05-09T03:31:35.573Z,3.16
2024-05-09T03:34:40.364Z,2.92
2024-05-09T03:37:42.243Z,2.98
2024-05-09T03:40:45.995Z,2.96
2024-05-09T03:43:47.923Z,2.89
2024-05-09T03:46:49.740Z,2.85
2024-05-09T03:49:51.661Z,3.03
2024-05-09T03:52:54.593Z,2.89
2024-05-09T03:55:59.651Z,2.89
2024-05-09T03:59:01.660Z,2.88
2024-05-09T04:02:05.541Z,2.66
2024-05-09T04:05:08.580Z,2.73
2024-05-09T04:08:11.202Z,2.65
2024-05-09T04:11:13.502Z,2.63
2024-05-09T04:14:15.410Z,2.78
2024-05-09T04:17:17.287Z,2.68
2024-05-09T04:20:29.189Z,2.58
2024-05-09T04:23:39.451Z,2.84
2024-05-09T04:26:41.535Z,2.65
2024-05-09T04:29:43.373Z,2.86
2024-05-09T04:32:45.433Z,2.53
2024-05-09T04:35:49.474Z,2.62
2024-05-09T04:38:51.469Z,2.79
2024-05-09T04:41:53.476Z,2.62
2024-05-09T04:44:58.284Z,2.64
2024-05-09T04:48:01.274Z,2.74
2024-05-09T04:51:04.203Z,2.61
2024-05-09T04:54:08.381Z,2.46
2024-05-09T04:57:12.429Z,2.94
2024-05-09T05:00:18.079Z,2.60
2024-05-09T05:03:27.655Z,2.67
2024-05-09T05:06:30.286Z,2.56
2024-05-09T05:09:32.107Z,2.81
2024-05-09T05:12:52.723Z,2.61
2024-05-09T05:15:58.471Z,2.76
2024-05-09T05:19:00.806Z,2.61
2024-05-09T05:22:02.790Z,2.73
2024-05-09T05:25:04.976Z,2.70
2024-05-09T05:28:07.112Z,2.68
2024-05-09T05:31:08.938Z,2.76
2024-05-09T05:34:10.865Z,2.62
2024-05-09T05:37:12.724Z,2.66
2024-05-09T05:40:24.734Z,2.41
2024-05-09T05:43:30.375Z,2.71
2024-05-09T05:46:32.291Z,2.91
2024-05-09T05:49:34.631Z,2.70
2024-05-09T05:52:36.521Z,2.84
2024-05-09T05:55:42.848Z,2.47
2024-05-09T05:58:44.854Z,2.69
2024-05-09T06:01:47.672Z,2.54
2024-05-09T06:04:49.625Z,2.60
2024-05-09T06:07:51.622Z,2.72
2024-05-09T06:10:53.594Z,2.60
2024-05-09T06:13:55.487Z,2.55
2024-05-09T06:16:58.501Z,2.53
2024-05-09T06:20:00.571Z,2.53
2024-05-09T06:23:03.451Z,2.50
2024-05-09T06:26:05.476Z,2.37
2024-05-09T06:29:07.716Z,2.50
2024-05-09T06:32:09.684Z,2.75
2024-05-09T06:35:11.643Z,2.47
2024-05-09T06:38:13.668Z,2.57
2024-05-09T06:41:15.658Z,2.24
2024-05-09T06:44:17.589Z,2.46
2024-05-09T06:47:19.552Z,2.40
2024-05-09T06:50:24.314Z,2.48
2024-05-09T06:53:29.845Z,2.29
2024-05-09T06:56:31.843Z,2.41
2024-05-09T06:59:33.856Z,2.20
2024-05-09T07:02:35.951Z,2.33
2024-05-09T07:05:38.138Z,2.25
2024-05-09T07:08:41.167Z,2.41
2024-05-09T07:11:43.155Z,2.25
2024-05-09T07:14:45.183Z,2.25
2024-05-09T07:17:47.202Z,2.40
2024-05-09T07:20:50.234Z,2.45
2024-05-09T07:23:52.729Z,2.50
2024-05-09T07:26:54.745Z,2.32
2024-05-09T07:29:57.852Z,2.30
2024-05-09T07:33:00.174Z,2.31
2024-05-09T07:36:02.442Z,2.45
2024-05-09T07:39:05.769Z,2.42
2024-05-09T07:42:07.739Z,2.42
2024-05-09T07:45:24.160Z,2.33
2024-05-09T07:50:01.413Z,2.32
2024-05-09T07:53:21.157Z,2.16
2024-05-09T07:55:15.504Z,2.26
2024-05-09T07:58:17.511Z,2.20
2024-05-09T08:01:20.545Z,2.21
2024-05-09T08:04:23.691Z,2.35
2024-05-09T08:07:29.178Z,2.13
2024-05-09T08:10:31.081Z,2.10
2024-05-09T08:13:32.977Z,2.26
2024-05-09T08:16:34.871Z,2.27
2024-05-09T08:19:37.797Z,2.24
2024-05-09T08:22:39.690Z,2.23
2024-05-09T08:25:41.514Z,2.10
2024-05-09T08:28:43.345Z,2.16
2024-05-09T08:31:45.248Z,2.21
2024-05-09T08:34:47.230Z,2.17
2024-05-09T08:37:50.039Z,2.18
2024-05-09T08:40:52.408Z,2.08
2024-05-09T08:43:54.629Z,2.09
2024-05-09T08:46:56.981Z,2.10
2024-05-09T08:50:03.163Z,1.91
2024-05-09T08:53:06.549Z,2.24
2024-05-09T08:56:11.842Z,2.02
2024-05-09T08:59:21.221Z,1.97
2024-05-09T09:02:24.428Z,1.90
2024-05-09T09:05:31.758Z,1.98
2024-05-09T09:08:34.058Z,1.69
2024-05-09T09:11:35.948Z,1.69
2024-05-09T09:14:37.796Z,1.68
2024-05-09T09:17:39.795Z,1.55
2024-05-09T09:20:42.228Z,1.81
2024-05-09T09:23:44.075Z,1.66
2024-05-09T09:26:45.882Z,1.63
2024-05-09T09:29:48.804Z,1.74
2024-05-09T09:32:50.714Z,1.80
2024-05-09T09:35:52.616Z,1.95
2024-05-09T09:38:56.692Z,2.01
2024-05-09T09:42:03.160Z,1.87
2024-05-09T09:45:06.876Z,1.77
2024-05-09T09:48:10.613Z,1.75
2024-05-09T09:51:15.118Z,1.83
2024-05-09T09:54:18.464Z,1.68
2024-05-09T09:57:21.545Z,1.59
2024-05-09T10:00:32.493Z,1.74
2024-05-09T10:03:36.021Z,1.70
2024-05-09T10:06:48.842Z,1.71
2024-05-09T10:09:56.206Z,1.85
2024-05-09T10:13:05.414Z,1.89
2024-05-09T10:16:11.505Z,1.92
2024-05-09T10:19:27.176Z,1.89
2024-05-09T10:22:29.837Z,1.91
2024-05-09T10:25:31.914Z,1.88
2024-05-09T10:28:36.908Z,1.74
2024-05-09T10:31:42.051Z,1.78
2024-05-09T10:34:47.167Z,1.73
2024-05-09T10:37:51.134Z,1.75
2024-05-09T10:40:57.059Z,1.76
2024-05-09T10:43:58.893Z,1.71
2024-05-09T10:47:00.823Z,1.62
2024-05-09T10:50:04.844Z,1.68
2024-05-09T10:53:07.829Z,1.83
2024-05-09T10:56:10.404Z,1.67
2024-05-09T10:59:12.903Z,1.72
2024-05-09T11:02:17.296Z,1.71
2024-05-09T11:05:19.920Z,1.54
2024-05-09T11:08:23.728Z,1.71
2024-05-09T11:11:26.690Z,1.50
2024-05-09T11:14:28.630Z,1.57
2024-05-09T11:17:37.206Z,1.47
2024-05-09T11:20:39.161Z,1.54
2024-05-09T11:23:41.698Z,1.57
2024-05-09T11:26:43.659Z,1.66
2024-05-09T11:29:47.408Z,2.10
2024-05-09T11:32:49.939Z,1.91
2024-05-09T11:35:51.864Z,1.93
2024-05-09T11:38:53.740Z,5.62
2024-05-09T11:41:55.594Z,2.61
2024-05-09T11:44:57.507Z,1.79
2024-05-09T11:47:59.415Z,1.64
2024-05-09T11:51:01.316Z,1.75
2024-05-09T11:54:03.182Z,1.70
2024-05-09T11:57:05.182Z,1.53
2024-05-09T12:00:09.628Z,1.48
2024-05-09T12:03:13.804Z,1.44
2024-05-09T12:06:15.868Z,1.58
2024-05-09T12:09:18.286Z,1.49
2024-05-09T12:12:20.128Z,1.39
2024-05-09T12:15:22.001Z,1.38
2024-05-09T12:18:24.043Z,1.45
2024-05-09T12:21:26.103Z,1.41
2024-05-09T12:24:30.602Z,1.31
2024-05-09T12:27:32.666Z,1.42
2024-05-09T12:30:38.798Z,1.38
2024-05-09T12:33:42.687Z,1.31
2024-05-09T12:36:44.693Z,1.42
2024-05-09T12:39:46.639Z,1.43
2024-05-09T12:42:49.957Z,1.38
2024-05-09T12:45:51.869Z,1.33
2024-05-09T12:48:54.047Z,1.39
2024-05-09T12:51:56.192Z,1.34
2024-05-09T12:54:58.065Z,1.43
2024-05-09T12:57:59.988Z,1.54
2024-05-09T13:01:02.107Z,1.38
2024-05-09T13:04:04.495Z,1.58
2024-05-09T13:07:08.025Z,1.45
2024-05-09T13:10:13.923Z,1.42
2024-05-09T13:13:18.367Z,1.47
2024-05-09T13:16:20.465Z,1.56
2024-05-09T13:19:22.577Z,1.49
2024-05-09T13:22:24.545Z,1.52
2024-05-09T13:25:26.406Z,1.45
2024-05-09T13:28:28.493Z,1.37
2024-05-09T13:31:30.473Z,1.50
2024-05-09T13:34:32.447Z,1.43
2024-05-09T13:37:34.499Z,1.28
2024-05-09T13:40:36.794Z,1.43
2024-05-09T13:43:38.934Z,1.30
2024-05-09T13:46:42.045Z,1.41
2024-05-09T13:49:44.079Z,1.36
2024-05-09T13:52:46.139Z,1.28
2024-05-09T13:55:48.762Z,1.31
2024-05-09T13:58:51.229Z,1.27
2024-05-09T14:01:53.127Z,1.42
2024-05-09T14:04:55.138Z,1.20
2024-05-09T14:07:57.769Z,1.24
2024-05-09T14:10:59.744Z,1.15
2024-05-09T14:14:02.041Z,1.33
2024-05-09T14:17:04.028Z,1.26
2024-05-09T14:20:09.605Z,1.24
2024-05-09T14:23:14.972Z,1.19
2024-05-09T14:26:17.602Z,1.17
2024-05-09T14:29:19.522Z,1.14
2024-05-09T14:32:21.587Z,1.14
2024-05-09T14:35:23.481Z,1.25
2024-05-09T14:38:27.568Z,1.14
2024-05-09T14:41:29.446Z,1.30
2024-05-09T14:44:31.313Z,1.13
2024-05-09T14:47:33.661Z,1.16
2024-05-09T14:50:38.846Z,1.18
2024-05-09T14:53:42.388Z,1.11
2024-05-09T14:56:44.393Z,1.19
2024-05-09T14:59:46.203Z,1.17
2024-05-09T15:02:49.911Z,1.16
2024-05-09T15:05:52.417Z,1.38
2024-05-09T15:08:57.086Z,1.35
2024-05-09T15:11:58.955Z,1.31
2024-05-09T15:15:00.786Z,1.38
2024-05-09T15:18:04.922Z,1.38
2024-05-09T15:21:07.040Z,1.25
2024-05-09T15:24:08.925Z,1.33
2024-05-09T15:27:13.061Z,1.36
2024-05-09T15:30:18.133Z,1.25
2024-05-09T15:33:22.590Z,1.19
2024-05-09T15:36:24.603Z,1.35
2024-05-09T15:39:30.155Z,1.35
2024-05-09T15:42:32.020Z,1.23
2024-05-09T15:45:34.647Z,1.25
2024-05-09T15:48:37.178Z,1.29
2024-05-09T15:51:39.738Z,1.41
2024-05-09T15:54:41.618Z,1.33
2024-05-09T15:57:46.114Z,1.16
2024-05-09T16:00:50.498Z,1.13
2024-05-09T16:03:53.993Z,1.17
2024-05-09T16:06:56.124Z,1.10
2024-05-09T16:09:58.790Z,1.27
2024-05-09T16:13:00.838Z,1.11
2024-05-09T16:16:04.136Z,1.30
2024-05-09T16:19:06.261Z,1.31
2024-05-09T16:22:08.216Z,1.12
2024-05-09T16:25:10.235Z,1.19
2024-05-09T16:28:12.479Z,1.18
2024-05-09T16:31:14.452Z,1.15
2024-05-09T16:34:17.757Z,1.17
2024-05-09T16:37:19.724Z,1.25
2024-05-09T16:40:29.799Z,1.23
2024-05-09T16:43:38.555Z,1.15
2024-05-09T16:46:42.861Z,1.16
2024-05-09T16:49:44.983Z,1.19
2024-05-09T16:52:46.788Z,1.06
2024-05-09T16:55:48.827Z,1.22
2024-05-09T16:58:50.953Z,1.12
2024-05-09T17:01:52.900Z,1.21
2024-05-09T17:04:54.807Z,1.26
2024-05-09T17:07:57.339Z,1.32
2024-05-09T17:10:59.348Z,1.35
2024-05-09T17:14:01.496Z,1.36
2024-05-09T17:17:03.569Z,1.47
2024-05-09T17:20:08.578Z,1.35
2024-05-09T17:23:14.766Z,1.31
2024-05-09T17:26:17.062Z,1.18
2024-05-09T17:29:21.601Z,1.25
2024-05-09T17:32:23.606Z,1.14
2024-05-09T17:35:25.490Z,1.39
2024-05-09T17:38:27.404Z,1.33
2024-05-09T17:41:29.218Z,1.44
2024-05-09T17:44:31.094Z,1.26
2024-05-09T17:47:36.104Z,1.37
2024-05-09T17:50:38.561Z,1.41
2024-05-09T17:53:40.561Z,1.42
2024-05-09T17:56:42.413Z,1.36
2024-05-09T17:59:44.840Z,1.46
2024-05-09T18:02:46.711Z,1.40
2024-05-09T18:05:48.782Z,1.43
2024-05-09T18:08:50.809Z,1.49
2024-05-09T18:11:52.650Z,1.49
2024-05-09T18:14:54.688Z,1.49
2024-05-09T18:17:56.889Z,1.65
2024-05-09T18:20:58.889Z,1.65
2024-05-09T18:24:00.728Z,1.87
2024-05-09T18:27:02.970Z,1.76
2024-05-09T18:30:09.430Z,1.83
2024-05-09T18:33:14.052Z,1.57
2024-05-09T18:36:16.178Z,1.66
2024-05-09T18:39:17.983Z,1.78
2024-05-09T18:42:19.906Z,1.58
2024-05-09T18:45:21.768Z,1.67
2024-05-09T18:48:23.722Z,1.98
2024-05-09T18:51:25.757Z,2.11
2024-05-09T18:54:27.585Z,2.10
2024-05-09T18:57:29.475Z,2.27
2024-05-09T19:00:35.954Z,2.19
2024-05-09T19:03:40.926Z,2.43
2024-05-09T19:06:43.118Z,2.44
2024-05-09T19:09:45.523Z,2.23
2024-05-09T19:12:47.454Z,2.30
2024-05-09T19:15:49.371Z,2.30
2024-05-09T19:18:51.708Z,2.20
2024-05-09T19:21:54.011Z,2.25
2024-05-09T19:24:58.550Z,2.28
2024-05-09T19:28:01.220Z,2.28
2024-05-09T19:31:03.553Z,2.45
2024-05-09T19:34:05.483Z,2.56
2024-05-09T19:37:07.632Z,2.45
2024-05-09T19:40:14.876Z,2.54
2024-05-09T19:43:23.154Z,2.73
2024-05-09T19:46:25.654Z,2.87
2024-05-09T19:49:27.724Z,2.81
2024-05-09T19:52:29.656Z,2.79
2024-05-09T19:55:31.519Z,3.03
2024-05-09T19:58:33.555Z,3.03
2024-05-09T20:01:35.656Z,3.23
2024-05-09T20:04:37.691Z,2.97
2024-05-09T20:07:39.637Z,3.12
2024-05-09T20:10:41.573Z,3.05
2024-05-09T20:13:43.459Z,2.85
2024-05-09T20:16:45.254Z,2.85
2024-05-09T20:19:47.183Z,2.81
2024-05-09T20:22:49.077Z,3.00
2024-05-09T20:25:50.896Z,3.28
2024-05-09T20:28:52.778Z,3.05
2024-05-09T20:31:54.620Z,3.31
2024-05-09T20:34:56.976Z,3.47
2024-05-09T20:37:59.235Z,3.64
2024-05-09T20:41:01.290Z,3.63
2024-05-09T20:44:03.621Z,3.50
2024-05-09T20:47:05.553Z,3.43
2024-05-09T20:50:13.677Z,3.22
2024-05-09T20:53:22.190Z,3.35
2024-05-09T20:56:25.073Z,3.19
2024-05-09T20:59:26.907Z,3.28
2024-05-09T21:02:28.928Z,3.27
2024-05-09T21:05:30.950Z,3.31
2024-05-09T21:08:32.838Z,3.14
2024-05-09T21:11:34.707Z,3.20
2024-05-09T21:14:36.637Z,2.98
2024-05-09T21:17:38.478Z,3.25
2024-05-09T21:20:40.434Z,3.07
2024-05-09T21:23:42.319Z,3.14
2024-05-09T21:26:44.564Z,3.25
2024-05-09T21:29:46.381Z,3.25
2024-05-09T21:32:48.409Z,3.19
2024-05-09T21:35:50.424Z,3.15
2024-05-09T21:38:52.300Z,3.11
2024-05-09T21:41:54.109Z,3.12
2024-05-09T21:44:55.984Z,3.22
2024-05-09T21:47:58.016Z,3.24
2024-05-09T21:50:59.940Z,3.28
2024-05-09T21:54:01.777Z,3.18
2024-05-09T21:57:06.513Z,3.18
2024-05-09T22:00:24.861Z,3.30
2024-05-09T22:03:34.577Z,3.15
2024-05-09T22:06:36.617Z,3.27
2024-05-09T22:09:40.255Z,3.21
2024-05-09T22:12:42.232Z,3.33
2024-05-09T22:15:44.099Z,3.48
2024-05-09T22:18:46.159Z,3.25
2024-05-09T22:21:49.158Z,3.26
2024-05-09T22:24:51.123Z,3.48
2024-05-09T22:27:52.969Z,3.14
2024-05-09T22:30:55.550Z,3.32
2024-05-09T22:33:57.603Z,3.12
2024-05-09T22:36:59.645Z,3.03
2024-05-09T22:40:03.950Z,3.31
2024-05-09T22:43:07.305Z,3.06
2024-05-09T22:46:09.208Z,3.31
2024-05-09T22:49:11.222Z,3.11
2024-05-09T22:52:13.319Z,3.13
2024-05-09T22:55:15.331Z,3.10
2024-05-09T22:58:18.144Z,3.22
2024-05-09T23:01:20.834Z,3.20
2024-05-09T23:04:23.377Z,3.30
2024-05-09T23:07:25.345Z,3.08
2024-05-09T23:10:32.628Z,3.17
2024-05-09T23:13:38.355Z,3.04
2024-05-09T23:16:40.231Z,3.16
2024-05-09T23:19:42.920Z,3.23
2024-05-09T23:22:46.213Z,3.20
2024-05-09T23:25:49.466Z,3.26
2024-05-09T23:28:51.254Z,3.17
2024-05-09T23:31:53.440Z,3.18
2024-05-09T23:34:55.412Z,3.30
2024-05-09T23:37:57.340Z,3.25
2024-05-09T23:40:59.207Z,3.09
2024-05-09T23:44:01.053Z,3.18
2024-05-09T23:47:03.312Z,3.09
2024-05-09T23:50:13.745Z,3.16
2024-05-09T23:53:18.399Z,3.22
2024-05-09T23:56:21.597Z,3.16
2024-05-09T23:59:23.438Z,3.16
